createdAt,value
2019-02-16T00:01:02.560Z,1.77
2019-02-16T00:03:31.627Z,1.86
2019-02-16T00:06:00.708Z,1.86
2019-02-16T00:08:29.908Z,1.86
2019-02-16T00:10:59.071Z,1.86
2019-02-16T00:13:28.332Z,1.76
2019-02-16T00:15:57.631Z,1.68
2019-02-16T00:18:26.695Z,1.70
2019-02-16T00:21:03.691Z,1.59
2019-02-16T00:23:27.310Z,1.54
2019-02-16T00:25:56.399Z,1.47
2019-02-16T00:28:25.454Z,1.42
2019-02-16T00:30:54.730Z,1.43
2019-02-16T00:33:24.065Z,1.39
2019-02-16T00:35:53.237Z,1.32
2019-02-16T00:38:23.538Z,1.35
2019-02-16T00:40:52.787Z,1.35
2019-02-16T00:43:21.893Z,1.21
2019-02-16T00:45:51.123Z,1.11
2019-02-16T00:48:20.395Z,1.15
2019-02-16T00:50:49.664Z,1.14
2019-02-16T00:53:18.736Z,1.11
2019-02-16T00:55:48.155Z,1.22
2019-02-16T00:58:17.223Z,1.21
2019-02-16T01:00:48.485Z,1.19
2019-02-16T01:03:17.625Z,1.17
2019-02-16T01:05:47.076Z,1.05
2019-02-16T01:08:16.380Z,1.06
2019-02-16T01:10:45.648Z,1.04
2019-02-16T01:13:14.734Z,1.15
2019-02-16T01:15:43.789Z,1.16
2019-02-16T01:18:13.842Z,1.26
2019-02-16T01:20:43.171Z,1.17
2019-02-16T01:23:12.422Z,1.19
2019-02-16T01:25:41.644Z,1.09
2019-02-16T01:28:10.746Z,1.07
2019-02-16T01:30:40.140Z,0.97
2019-02-16T01:33:09.183Z,1.06
2019-02-16T01:35:38.591Z,0.94
2019-02-16T01:38:07.703Z,0.99
2019-02-16T01:40:36.992Z,1.01
2019-02-16T01:43:06.243Z,1.13
2019-02-16T01:45:35.373Z,0.97
2019-02-16T01:48:04.635Z,1.04
2019-02-16T01:50:33.899Z,0.85
2019-02-16T01:53:03.179Z,0.74
2019-02-16T01:55:32.441Z,0.80
2019-02-16T01:58:01.494Z,0.76
2019-02-16T02:00:30.736Z,0.67
2019-02-16T02:02:59.816Z,0.59
2019-02-16T02:05:29.192Z,0.62
2019-02-16T02:07:58.463Z,0.60
2019-02-16T02:10:28.092Z,0.66
2019-02-16T02:12:57.180Z,0.56
2019-02-16T02:15:26.265Z,0.52
2019-02-16T02:17:55.319Z,0.35
2019-02-16T02:20:25.341Z,0.47
2019-02-16T02:22:54.708Z,0.45
2019-02-16T02:25:23.832Z,0.51
2019-02-16T02:27:53.090Z,0.62
2019-02-16T02:30:22.416Z,0.61
2019-02-16T02:32:51.559Z,0.55
2019-02-16T02:35:20.792Z,0.52
2019-02-16T02:37:49.841Z,0.51
2019-02-16T02:40:19.248Z,0.45
2019-02-16T02:42:48.461Z,0.38
2019-02-16T02:45:17.665Z,0.35
2019-02-16T02:47:47.093Z,0.21
2019-02-16T02:50:16.138Z,0.52
2019-02-16T02:52:45.323Z,0.42
2019-02-16T02:55:14.701Z,0.60
2019-02-16T02:57:43.776Z,0.57
2019-02-16T03:00:13.017Z,0.65
2019-02-16T03:02:42.232Z,0.71
2019-02-16T03:05:11.449Z,0.61
2019-02-16T03:07:40.701Z,0.74
2019-02-16T03:10:09.914Z,0.60
2019-02-16T03:12:39.063Z,0.66
2019-02-16T03:15:08.742Z,0.64
2019-02-16T03:17:37.802Z,0.65
2019-02-16T03:20:07.137Z,0.61
2019-02-16T03:23:13.401Z,0.57
2019-02-16T03:25:48.740Z,0.71
2019-02-16T03:28:50.212Z,0.62
2019-02-16T03:32:17.374Z,0.68
2019-02-16T03:35:23.684Z,0.60
2019-02-16T03:38:42.693Z,0.27
2019-02-16T03:41:11.758Z,0.28
2019-02-16T03:43:40.970Z,0.25
2019-02-16T03:46:10.210Z,0.27
2019-02-16T03:48:39.281Z,0.27
2019-02-16T03:51:08.769Z,0.31
2019-02-16T03:53:37.845Z,0.30
2019-02-16T03:56:07.034Z,0.31
2019-02-16T03:58:36.228Z,0.27
2019-02-16T04:01:05.501Z,0.14
2019-02-16T04:03:34.854Z,0.15
2019-02-16T04:06:03.907Z,0.07
2019-02-16T04:08:33.351Z,-0.04
2019-02-16T04:11:02.472Z,-0.11
2019-02-16T04:13:31.728Z,-0.05
2019-02-16T04:16:00.930Z,-0.13
2019-02-16T04:18:30.053Z,-0.10
2019-02-16T04:20:59.330Z,-0.01
2019-02-16T04:23:28.420Z,0.07
2019-02-16T04:25:57.688Z,0.03
2019-02-16T04:28:26.943Z,0.05
2019-02-16T04:30:56.210Z,0.02
2019-02-16T04:33:25.435Z,0.07
2019-02-16T04:35:54.793Z,0.03
2019-02-16T04:38:23.896Z,0.17
2019-02-16T04:40:53.139Z,-0.01
2019-02-16T04:43:22.219Z,-0.01
2019-02-16T04:45:51.492Z,-0.09
2019-02-16T04:48:20.942Z,-0.22
2019-02-16T04:50:50.041Z,-0.18
2019-02-16T04:53:19.219Z,-0.23
2019-02-16T04:55:48.465Z,-0.08
2019-02-16T04:58:17.530Z,-0.05
2019-02-16T05:00:47.052Z,0.01
2019-02-16T05:03:16.146Z,0.15
2019-02-16T05:05:45.342Z,0.14
2019-02-16T05:08:14.447Z,0.07
2019-02-16T05:10:43.664Z,0.07
2019-02-16T05:13:13.025Z,0.10
2019-02-16T05:15:42.114Z,0.03
2019-02-16T05:18:11.509Z,-0.02
2019-02-16T05:20:40.624Z,0.01
2019-02-16T05:23:09.795Z,-0.01
2019-02-16T05:25:39.104Z,0.09
2019-02-16T05:28:08.235Z,-0.01
2019-02-16T05:30:37.878Z,-0.06
2019-02-16T05:33:06.931Z,-0.08
2019-02-16T05:35:36.306Z,-0.10
2019-02-16T05:38:05.377Z,-0.06
2019-02-16T05:40:34.421Z,-0.17
2019-02-16T05:43:03.730Z,-0.20
2019-02-16T05:45:32.822Z,-0.12
2019-02-16T05:48:02.107Z,-0.09
2019-02-16T05:50:31.312Z,-0.04
2019-02-16T05:53:00.458Z,0.00
2019-02-16T05:55:29.669Z,-0.02
2019-02-16T05:57:58.919Z,-0.06
2019-02-16T06:00:30.576Z,-0.04
2019-02-16T06:02:59.695Z,0.04
2019-02-16T06:05:28.743Z,0.07
2019-02-16T06:07:57.893Z,0.16
2019-02-16T06:10:27.221Z,0.11
2019-02-16T06:12:56.287Z,0.19
2019-02-16T06:15:25.438Z,0.16
2019-02-16T06:17:54.814Z,0.10
2019-02-16T06:20:23.980Z,0.14
2019-02-16T06:22:53.083Z,0.12
2019-02-16T06:25:22.323Z,0.05
2019-02-16T06:27:51.598Z,-0.09
2019-02-16T06:30:20.687Z,-0.08
2019-02-16T06:32:49.976Z,-0.04
2019-02-16T06:35:28.331Z,0.09
2019-02-16T06:37:57.413Z,-0.08
2019-02-16T06:40:26.446Z,0.05
2019-02-16T06:42:55.690Z,0.10
2019-02-16T06:45:25.725Z,0.00
2019-02-16T06:47:55.014Z,-0.03
2019-02-16T06:50:24.316Z,-0.07
2019-02-16T06:52:53.609Z,0.04
2019-02-16T06:55:24.668Z,0.09
2019-02-16T06:57:55.316Z,0.39
2019-02-16T07:00:27.402Z,0.69
2019-02-16T07:02:56.505Z,0.73
2019-02-16T07:05:25.551Z,0.62
2019-02-16T07:07:56.584Z,0.53
2019-02-16T07:10:26.285Z,0.58
2019-02-16T07:12:55.383Z,0.84
2019-02-16T07:15:24.511Z,1.14
2019-02-16T07:17:56.635Z,1.56
2019-02-16T07:20:25.824Z,1.81
2019-02-16T07:22:55.130Z,1.98
2019-02-16T07:25:25.267Z,2.14
2019-02-16T07:27:54.604Z,2.19
2019-02-16T07:30:23.766Z,2.46
2019-02-16T07:32:52.864Z,2.43
2019-02-16T07:35:21.968Z,2.64
2019-02-16T07:37:51.214Z,2.55
2019-02-16T07:40:20.557Z,2.55
2019-02-16T07:42:59.201Z,2.36
2019-02-16T07:45:47.573Z,2.50
2019-02-16T07:48:35.043Z,2.51
2019-02-16T07:51:38.092Z,2.47
2019-02-16T07:54:26.463Z,2.35
2019-02-16T07:57:06.248Z,2.20
2019-02-16T07:59:54.296Z,2.19
2019-02-16T08:02:45.489Z,2.36
2019-02-16T08:05:45.888Z,2.49
2019-02-16T08:08:23.827Z,2.55
2019-02-16T08:11:27.481Z,2.53
2019-02-16T08:14:09.642Z,2.51
2019-02-16T08:16:50.427Z,2.79
2019-02-16T08:19:45.738Z,2.88
2019-02-16T08:22:28.519Z,3.53
2019-02-16T08:25:22.607Z,4.23
2019-02-16T08:28:09.476Z,4.23
2019-02-16T08:30:56.527Z,3.88
2019-02-16T08:33:43.776Z,3.96
2019-02-16T08:36:43.668Z,4.25
2019-02-16T08:39:18.993Z,4.25
2019-02-16T08:42:16.221Z,4.69
2019-02-16T08:45:07.410Z,4.82
2019-02-16T08:47:50.198Z,4.98
2019-02-16T08:50:41.521Z,4.97
2019-02-16T08:53:19.897Z,5.26
2019-02-16T08:56:07.897Z,5.59
2019-02-16T08:59:01.415Z,5.81
2019-02-16T09:01:52.476Z,5.87
2019-02-16T09:04:42.580Z,5.87
2019-02-16T09:07:29.452Z,6.14
2019-02-16T09:10:08.122Z,6.38
2019-02-16T09:12:56.559Z,6.54
2019-02-16T09:15:50.964Z,6.66
2019-02-16T09:18:38.030Z,7.01
2019-02-16T09:21:26.296Z,7.17
2019-02-16T09:24:11.542Z,6.98
2019-02-16T09:26:58.476Z,7.14
2019-02-16T09:29:52.901Z,7.31
2019-02-16T09:32:44.505Z,7.63
2019-02-16T09:35:45.052Z,8.04
2019-02-16T09:38:48.620Z,8.41
2019-02-16T09:41:30.376Z,8.68
2019-02-16T09:44:27.825Z,8.83
2019-02-16T09:47:13.704Z,8.78
2019-02-16T09:50:01.957Z,9.07
2019-02-16T09:53:05.251Z,9.18
2019-02-16T09:55:52.348Z,9.34
2019-02-16T09:58:53.078Z,9.58
2019-02-16T10:01:30.916Z,9.79
2019-02-16T10:04:14.761Z,9.83
2019-02-16T10:07:12.115Z,10.05
2019-02-16T10:10:06.536Z,10.18
2019-02-16T10:13:01.336Z,10.58
2019-02-16T10:16:04.698Z,10.59
2019-02-16T10:18:52.885Z,10.72
2019-02-16T10:21:40.920Z,11.06
2019-02-16T10:24:31.947Z,11.29
2019-02-16T10:27:26.105Z,11.46
2019-02-16T10:30:11.677Z,11.60
2019-02-16T10:33:06.469Z,11.76
2019-02-16T10:35:57.596Z,11.96
2019-02-16T10:38:34.026Z,12.04
2019-02-16T10:41:20.694Z,12.06
2019-02-16T10:44:20.777Z,12.11
2019-02-16T10:47:05.691Z,12.15
2019-02-16T10:49:53.975Z,12.19
2019-02-16T10:52:40.589Z,12.16
2019-02-16T10:55:31.900Z,12.34
2019-02-16T10:58:22.628Z,12.44
2019-02-16T11:01:16.817Z,12.53
2019-02-16T11:03:59.920Z,12.50
2019-02-16T11:06:50.848Z,12.51
2019-02-16T11:09:30.177Z,12.62
2019-02-16T11:12:18.738Z,12.70
2019-02-16T11:15:22.024Z,12.76
2019-02-16T11:18:28.373Z,12.90
2019-02-16T11:21:19.696Z,13.03
2019-02-16T11:24:17.062Z,13.10
2019-02-16T11:27:05.499Z,13.18
2019-02-16T11:30:05.457Z,13.28
2019-02-16T11:32:56.537Z,13.36
2019-02-16T11:35:59.695Z,13.42
2019-02-16T11:38:44.705Z,13.56
2019-02-16T11:41:35.935Z,13.69
2019-02-16T11:44:14.850Z,13.68
2019-02-16T11:47:00.154Z,13.83
2019-02-16T11:49:46.298Z,13.92
2019-02-16T11:52:31.024Z,14.08
2019-02-16T11:55:16.459Z,14.17
2019-02-16T11:57:54.485Z,14.22
2019-02-16T12:00:45.876Z,14.29
2019-02-16T12:03:20.806Z,14.30
2019-02-16T12:06:15.107Z,14.40
2019-02-16T12:09:10.012Z,14.40
2019-02-16T12:11:46.496Z,14.41
2019-02-16T12:14:33.813Z,14.39
2019-02-16T12:17:13.127Z,14.40
2019-02-16T12:20:03.540Z,14.49
2019-02-16T12:22:46.887Z,14.59
2019-02-16T12:25:34.895Z,14.50
2019-02-16T12:28:23.771Z,14.48
2019-02-16T12:31:27.015Z,14.63
2019-02-16T12:34:17.774Z,14.66
2019-02-16T12:36:53.829Z,14.65
2019-02-16T12:39:47.637Z,14.54
2019-02-16T12:42:42.000Z,14.62
2019-02-16T12:45:21.465Z,14.60
2019-02-16T12:48:12.710Z,14.67
2019-02-16T12:51:03.899Z,14.69
2019-02-16T12:53:50.878Z,14.72
2019-02-16T12:56:42.100Z,14.78
2019-02-16T12:59:28.686Z,14.87
2019-02-16T13:02:14.267Z,14.98
2019-02-16T13:05:14.667Z,14.98
2019-02-16T13:07:51.707Z,15.03
2019-02-16T13:10:40.131Z,15.04
2019-02-16T13:13:17.756Z,15.07
2019-02-16T13:16:12.095Z,15.07
2019-02-16T13:19:03.381Z,15.11
2019-02-16T13:21:42.709Z,15.17
2019-02-16T13:24:26.291Z,15.24
2019-02-16T13:27:14.812Z,15.29
2019-02-16T13:30:08.944Z,15.23
2019-02-16T13:32:45.246Z,15.30
2019-02-16T13:35:24.499Z,15.28
2019-02-16T13:38:01.367Z,15.29
2019-02-16T13:40:43.928Z,15.40
2019-02-16T13:43:32.465Z,15.46
2019-02-16T13:46:19.918Z,15.50
2019-02-16T13:48:58.440Z,15.38
2019-02-16T13:51:46.837Z,15.42
2019-02-16T13:54:25.284Z,15.41
2019-02-16T13:57:01.772Z,15.56
2019-02-16T13:59:52.799Z,15.55
2019-02-16T14:02:41.858Z,15.49
2019-02-16T14:05:45.050Z,15.46
2019-02-16T14:08:27.942Z,15.48
2019-02-16T14:11:09.144Z,15.32
2019-02-16T14:14:03.073Z,15.27
2019-02-16T14:16:51.170Z,15.31
2019-02-16T14:19:20.415Z,15.32
2019-02-16T14:21:49.555Z,15.31
2019-02-16T14:24:39.252Z,15.25
2019-02-16T14:27:08.926Z,15.14
2019-02-16T14:29:38.758Z,15.18
2019-02-16T14:32:10.099Z,15.17
2019-02-16T14:34:39.560Z,15.11
2019-02-16T14:37:20.222Z,15.02
2019-02-16T14:39:49.364Z,15.01
2019-02-16T14:42:18.591Z,15.08
2019-02-16T14:44:49.335Z,15.02
2019-02-16T14:47:18.960Z,15.02
2019-02-16T14:49:48.113Z,14.93
2019-02-16T14:52:17.261Z,14.86
2019-02-16T14:54:46.399Z,15.02
2019-02-16T14:57:15.886Z,14.97
2019-02-16T14:59:45.075Z,14.89
2019-02-16T15:02:22.885Z,14.91
2019-02-16T15:04:52.420Z,14.93
2019-02-16T15:07:21.580Z,14.96
2019-02-16T15:09:52.546Z,14.89
2019-02-16T15:12:21.891Z,14.79
2019-02-16T15:14:51.399Z,14.74
2019-02-16T15:17:21.102Z,14.70
2019-02-16T15:19:50.507Z,14.65
2019-02-16T15:22:20.091Z,14.58
2019-02-16T15:24:51.545Z,14.47
2019-02-16T15:27:20.978Z,14.37
2019-02-16T15:29:51.113Z,14.30
2019-02-16T15:32:20.495Z,14.21
2019-02-16T15:34:49.807Z,14.16
2019-02-16T15:37:18.986Z,14.11
2019-02-16T15:39:48.477Z,14.04
2019-02-16T15:42:17.619Z,13.96
2019-02-16T15:44:47.520Z,13.87
2019-02-16T15:47:16.941Z,13.81
2019-02-16T15:49:46.316Z,13.77
2019-02-16T15:52:15.753Z,13.74
2019-02-16T15:54:45.212Z,13.68
2019-02-16T15:57:14.571Z,13.64
2019-02-16T15:59:43.879Z,13.54
2019-02-16T16:02:13.208Z,13.45
2019-02-16T16:04:42.683Z,13.40
2019-02-16T16:07:15.793Z,13.32
2019-02-16T16:10:12.138Z,13.22
2019-02-16T16:12:57.517Z,13.14
2019-02-16T16:15:55.167Z,13.02
2019-02-16T16:18:43.526Z,12.90
2019-02-16T16:21:30.035Z,12.81
2019-02-16T16:24:19.353Z,12.64
2019-02-16T16:27:15.644Z,12.51
2019-02-16T16:30:13.033Z,12.36
2019-02-16T16:32:59.930Z,12.25
2019-02-16T16:36:00.665Z,12.10
2019-02-16T16:38:58.006Z,11.91
2019-02-16T16:41:46.823Z,11.75
2019-02-16T16:44:29.775Z,11.59
2019-02-16T16:47:23.583Z,11.41
2019-02-16T16:50:00.586Z,11.33
2019-02-16T16:52:47.103Z,11.09
2019-02-16T16:55:47.584Z,10.93
2019-02-16T16:58:34.436Z,10.84
2019-02-16T17:01:38.124Z,10.57
2019-02-16T17:04:41.081Z,10.35
2019-02-16T17:07:26.770Z,10.22
2019-02-16T17:10:13.896Z,10.10
2019-02-16T17:13:05.261Z,9.91
2019-02-16T17:15:41.471Z,9.78
2019-02-16T17:18:19.515Z,9.65
2019-02-16T17:21:02.175Z,9.58
2019-02-16T17:23:53.336Z,9.44
2019-02-16T17:26:40.839Z,9.38
2019-02-16T17:29:28.978Z,9.28
2019-02-16T17:32:19.452Z,9.16
2019-02-16T17:35:14.908Z,9.09
2019-02-16T17:38:07.247Z,9.04
2019-02-16T17:40:44.863Z,8.96
2019-02-16T17:43:24.538Z,8.84
2019-02-16T17:46:06.581Z,8.77
2019-02-16T17:48:59.705Z,8.66
2019-02-16T17:51:53.559Z,8.51
2019-02-16T17:54:30.018Z,8.47
2019-02-16T17:57:15.119Z,8.38
2019-02-16T17:59:50.780Z,8.26
2019-02-16T18:02:37.757Z,8.17
2019-02-16T18:05:38.055Z,8.02
2019-02-16T18:08:24.688Z,7.97
2019-02-16T18:11:12.726Z,7.83
2019-02-16T18:14:03.749Z,7.87
2019-02-16T18:16:52.004Z,7.65
2019-02-16T18:19:32.357Z,7.60
2019-02-16T18:22:10.433Z,7.59
2019-02-16T18:24:56.413Z,7.63
2019-02-16T18:27:49.664Z,7.53
2019-02-16T18:30:29.784Z,7.47
2019-02-16T18:33:16.994Z,7.40
2019-02-16T18:35:57.207Z,7.30
2019-02-16T18:38:32.446Z,7.35
2019-02-16T18:41:09.335Z,7.37
2019-02-16T18:43:50.543Z,7.37
2019-02-16T18:46:38.580Z,7.44
2019-02-16T18:49:23.961Z,7.43
2019-02-16T18:52:13.672Z,7.35
2019-02-16T18:55:10.658Z,7.42
2019-02-16T18:57:57.428Z,7.44
2019-02-16T19:00:38.273Z,7.50
2019-02-16T19:03:29.451Z,7.51
2019-02-16T19:06:16.291Z,7.39
2019-02-16T19:09:01.506Z,7.41
2019-02-16T19:11:46.540Z,7.32
2019-02-16T19:14:25.015Z,7.37
2019-02-16T19:17:18.218Z,7.46
2019-02-16T19:20:06.584Z,7.49
2019-02-16T19:22:53.386Z,7.52
2019-02-16T19:25:41.751Z,7.62
2019-02-16T19:28:33.723Z,7.71
2019-02-16T19:31:20.435Z,7.68
2019-02-16T19:34:06.638Z,7.66
2019-02-16T19:36:57.136Z,7.58
2019-02-16T19:39:40.361Z,7.66
2019-02-16T19:42:18.425Z,7.59
2019-02-16T19:45:06.731Z,7.59
2019-02-16T19:48:00.927Z,7.56
2019-02-16T19:50:55.165Z,7.43
2019-02-16T19:53:45.511Z,7.21
2019-02-16T19:56:32.650Z,6.97
2019-02-16T19:59:21.169Z,6.77
2019-02-16T20:01:58.032Z,6.61
2019-02-16T20:04:40.771Z,6.58
2019-02-16T20:07:32.209Z,6.54
2019-02-16T20:10:23.835Z,6.64
2019-02-16T20:13:10.877Z,6.61
2019-02-16T20:15:47.180Z,6.35
2019-02-16T20:18:31.612Z,6.25
2019-02-16T20:21:35.180Z,6.16
2019-02-16T20:24:21.538Z,6.04
2019-02-16T20:27:01.297Z,5.99
2019-02-16T20:29:49.474Z,5.83
2019-02-16T20:32:40.559Z,5.66
2019-02-16T20:35:41.190Z,5.60
2019-02-16T20:38:29.408Z,5.53
2019-02-16T20:41:18.616Z,5.48
2019-02-16T20:44:10.705Z,5.38
2019-02-16T20:47:14.016Z,5.31
2019-02-16T20:50:05.115Z,5.25
2019-02-16T20:52:57.611Z,5.23
2019-02-16T20:56:04.857Z,5.15
2019-02-16T20:58:52.910Z,4.92
2019-02-16T21:01:36.092Z,4.80
2019-02-16T21:04:39.395Z,4.54
2019-02-16T21:07:27.668Z,4.54
2019-02-16T21:10:34.098Z,4.55
2019-02-16T21:13:09.665Z,4.55
2019-02-16T21:15:57.831Z,4.37
2019-02-16T21:18:32.475Z,4.32
2019-02-16T21:21:20.803Z,4.27
2019-02-16T21:24:04.950Z,4.21
2019-02-16T21:26:53.130Z,4.11
2019-02-16T21:29:37.163Z,4.11
2019-02-16T21:32:21.466Z,4.25
2019-02-16T21:35:08.750Z,4.26
2019-02-16T21:37:48.701Z,4.11
2019-02-16T21:40:36.885Z,4.12
2019-02-16T21:43:28.524Z,4.06
2019-02-16T21:46:15.881Z,4.01
2019-02-16T21:49:04.210Z,4.01
2019-02-16T21:51:50.760Z,3.93
2019-02-16T21:54:31.174Z,3.93
2019-02-16T21:57:19.225Z,3.93
2019-02-16T22:00:25.891Z,3.97
2019-02-16T22:03:13.041Z,3.93
2019-02-16T22:05:53.091Z,3.79
2019-02-16T22:08:57.118Z,3.76
2019-02-16T22:11:54.447Z,3.76
2019-02-16T22:14:23.666Z,3.58
2019-02-16T22:16:52.912Z,3.34
2019-02-16T22:19:22.168Z,3.37
2019-02-16T22:21:51.607Z,3.14
2019-02-16T22:24:20.826Z,3.14
2019-02-16T22:26:50.207Z,3.25
2019-02-16T22:29:19.544Z,3.19
2019-02-16T22:31:49.136Z,3.17
2019-02-16T22:34:18.350Z,3.16
2019-02-16T22:36:47.946Z,3.16
2019-02-16T22:39:17.314Z,3.00
2019-02-16T22:41:46.788Z,3.00
2019-02-16T22:44:16.257Z,3.01
2019-02-16T22:46:45.666Z,3.02
2019-02-16T22:49:14.850Z,2.98
2019-02-16T22:51:44.031Z,3.05
2019-02-16T22:54:13.528Z,3.05
2019-02-16T22:56:42.858Z,2.95
2019-02-16T22:59:12.412Z,2.92
2019-02-16T23:01:41.919Z,2.93
2019-02-16T23:04:11.411Z,2.97
2019-02-16T23:06:40.569Z,2.91
2019-02-16T23:09:21.036Z,3.10
2019-02-16T23:11:50.425Z,3.21
2019-02-16T23:14:19.498Z,3.17
2019-02-16T23:16:48.679Z,3.17
2019-02-16T23:19:17.951Z,3.18
2019-02-16T23:21:47.144Z,3.29
2019-02-16T23:24:16.234Z,3.18
2019-02-16T23:26:45.780Z,3.18
2019-02-16T23:29:14.854Z,3.13
2019-02-16T23:31:44.204Z,3.13
2019-02-16T23:34:13.408Z,3.14
2019-02-16T23:36:42.764Z,2.97
2019-02-16T23:39:12.898Z,2.97
2019-02-16T23:41:43.394Z,2.79
2019-02-16T23:44:12.526Z,2.79
2019-02-16T23:46:41.647Z,2.86
2019-02-16T23:49:10.773Z,2.72
2019-02-16T23:51:40.216Z,2.58
2019-02-16T23:54:09.354Z,2.48
2019-02-16T23:56:38.523Z,2.31
2019-02-16T23:59:07.732Z,2.31
